Time;durP1;ratioP1;P1;durP2;ratioP2;P2;SDS_P1;SDS_P2;PMS_P1;PMS_P2;Temp;Humidity;BMP_temperature;BMP_pressure;BME280_temperature;BME280_humidity;BME280_pressure;Samples;Min_cycle;Max_cycle;Signal;HPM_P1;HPM_P2
2022/07/07 00:00:28;;;;;;;10.30;3.05;;;20.10;67.70;;;;;;5021896;28;20042;-87
2022/07/07 00:02:53;;;;;;;8.32;2.83;;;20.00;67.90;;;;;;5015151;28;20037;-87
2022/07/07 00:05:19;;;;;;;8.68;3.42;;;20.50;74.90;;;;;;5020664;28;20555;-88
2022/07/07 00:07:45;;;;;;;8.35;2.95;;;19.90;68.70;;;;;;5029198;28;20053;-87
2022/07/07 00:10:11;;;;;;;5.90;2.78;;;19.80;68.80;;;;;;5026786;28;20112;-88
2022/07/07 00:12:37;;;;;;;6.70;2.53;;;19.80;69.00;;;;;;5026319;28;20492;-88
2022/07/07 00:15:06;;;;;;;5.00;2.38;;;19.80;69.10;;;;;;5027339;28;20388;-87
2022/07/07 00:17:32;;;;;;;8.75;2.70;;;19.70;69.00;;;;;;5027956;28;20029;-88
2022/07/07 00:19:57;;;;;;;8.43;2.92;;;19.70;69.00;;;;;;5021103;28;20381;-87
2022/07/07 00:22:23;;;;;;;9.43;2.78;;;19.70;69.00;;;;;;5028072;28;20044;-86
2022/07/07 00:24:49;;;;;;;8.80;2.60;;;19.70;68.90;;;;;;5024395;28;20156;-87
2022/07/07 00:27:14;;;;;;;6.75;2.45;;;19.70;68.90;;;;;;5024154;28;20046;-87
2022/07/07 00:29:43;;;;;;;8.15;2.70;;;17.40;70.80;;;;;;5024764;28;20039;-87
2022/07/07 00:32:10;;;;;;;10.68;2.88;;;20.00;73.60;;;;;;5024510;28;20029;-87
2022/07/07 00:34:36;;;;;;;9.77;2.60;;;19.60;68.80;;;;;;5025365;28;20200;-88
2022/07/07 00:37:01;;;;;;;8.88;2.60;;;19.60;68.70;;;;;;5029461;28;20120;-88
2022/07/07 00:39:27;;;;;;;9.55;2.80;;;19.60;69.60;;;;;;5023189;28;20400;-88
2022/07/07 00:41:53;;;;;;;7.03;2.47;;;19.50;68.60;;;;;;5023585;28;20103;-88
2022/07/07 00:44:18;;;;;;;10.38;2.70;;;19.60;68.50;;;;;;5024977;28;20463;-88
2022/07/07 00:46:47;;;;;;;8.70;2.50;;;19.60;68.40;;;;;;5027072;28;20056;-88
2022/07/07 00:49:16;;;;;;;7.30;2.30;;;19.60;68.40;;;;;;5022262;28;20029;-89
2022/07/07 00:51:42;;;;;;;8.50;2.60;;;19.50;68.40;;;;;;5024471;28;20025;-88
2022/07/07 00:54:09;;;;;;;8.60;2.75;;;20.00;73.80;;;;;;5023896;28;20148;-88
2022/07/07 00:56:34;;;;;;;8.93;2.75;;;19.50;68.40;;;;;;5023411;28;20030;-88
2022/07/07 00:59:07;;;;;;;8.65;2.38;;;19.50;68.20;;;;;;5026924;28;20036;-88
2022/07/07 01:01:36;;;;;;;7.18;2.40;;;19.50;67.90;;;;;;5025327;28;20057;-89
2022/07/07 01:04:02;;;;;;;7.32;2.30;;;19.40;67.50;;;;;;5022565;28;20128;-89
2022/07/07 01:06:30;;;;;;;5.45;2.08;;;19.30;67.40;;;;;;5021944;28;20504;-88
2022/07/07 01:08:56;;;;;;;10.63;2.38;;;19.30;67.60;;;;;;5021225;28;20046;-88
2022/07/07 01:11:22;;;;;;;6.78;2.30;;;19.30;67.70;;;;;;5024500;28;20045;-88
2022/07/07 01:13:47;;;;;;;6.40;2.20;;;19.30;68.80;;;;;;5027162;28;20033;-88
2022/07/07 01:16:13;;;;;;;7.35;2.50;;;19.30;73.50;;;;;;5025995;28;20503;-89
2022/07/07 01:18:39;;;;;;;8.07;2.35;;;19.30;68.00;;;;;;5018093;28;20396;-88
2022/07/07 01:21:06;;;;;;;6.25;1.80;;;19.30;67.90;;;;;;5022396;28;20099;-88
2022/07/07 01:23:32;;;;;;;5.78;2.03;;;19.30;68.00;;;;;;5023680;28;20052;-89
2022/07/07 01:25:57;;;;;;;5.03;1.90;;;19.20;68.10;;;;;;5019371;28;20484;-88
2022/07/07 01:28:23;;;;;;;5.70;2.05;;;19.20;68.10;;;;;;5026014;28;20029;-88
2022/07/07 01:30:49;;;;;;;5.13;2.10;;;16.50;72.20;;;;;;5022418;28;20030;-88
2022/07/07 01:33:17;;;;;;;7.55;2.15;;;20.30;74.00;;;;;;5021915;28;20115;-88
2022/07/07 01:35:43;;;;;;;7.53;2.13;;;19.10;68.20;;;;;;5021584;28;20035;-88
2022/07/07 01:38:09;;;;;;;5.28;2.03;;;19.10;68.40;;;;;;5022218;28;20021;-88
2022/07/07 01:40:34;;;;;;;5.97;1.80;;;19.00;73.10;;;;;;5025200;28;20029;-88
2022/07/07 01:43:00;;;;;;;6.63;2.20;;;19.10;68.20;;;;;;5024985;28;20144;-88
2022/07/07 01:45:26;;;;;;;7.18;2.05;;;19.00;68.00;;;;;;5022726;28;20038;-88
2022/07/07 01:47:51;;;;;;;6.32;2.08;;;19.00;67.80;;;;;;5021592;28;20455;-89
2022/07/07 01:50:17;;;;;;;4.10;1.90;;;18.90;67.60;;;;;;5018878;28;20028;-88
2022/07/07 01:52:43;;;;;;;7.32;2.25;;;19.10;72.40;;;;;;5028671;28;20037;-89
2022/07/07 01:55:09;;;;;;;9.07;2.20;;;19.50;72.30;;;;;;5025913;28;20017;-88
2022/07/07 01:57:34;;;;;;;8.90;2.03;;;18.80;67.40;;;;;;5023213;28;20025;-88
2022/07/07 02:00:00;;;;;;;5.82;2.20;;;18.80;67.30;;;;;;5021662;28;20496;-87
2022/07/07 02:02:26;;;;;;;5.60;1.90;;;18.70;67.30;;;;;;5022713;28;20036;-87
2022/07/07 02:04:52;;;;;;;7.25;1.80;;;18.70;68.30;;;;;;5024071;28;20034;-87
2022/07/07 02:07:17;;;;;;;8.80;2.00;;;19.00;72.20;;;;;;5010212;28;20041;-88
2022/07/07 02:09:43;;;;;;;6.88;1.90;;;18.60;67.50;;;;;;5020575;28;20049;-87
2022/07/07 02:12:09;;;;;;;6.80;2.05;;;19.10;71.90;;;;;;5020710;28;20654;-88
2022/07/07 02:14:34;;;;;;;5.43;2.03;;;18.50;67.80;;;;;;5022854;28;20056;-87
2022/07/07 02:17:00;;;;;;;8.10;2.10;;;18.50;67.90;;;;;;5012870;28;20101;-87
2022/07/07 02:19:26;;;;;;;7.18;1.92;;;18.50;68.10;;;;;;5025700;28;20033;-87
2022/07/07 02:21:52;;;;;;;6.82;1.80;;;18.50;68.10;;;;;;5023717;28;20029;-86
2022/07/07 02:24:18;;;;;;;8.70;1.80;;;19.20;73.00;;;;;;5024074;28;20056;-87
2022/07/07 02:26:43;;;;;;;7.03;1.80;;;18.50;67.70;;;;;;5017566;28;20068;-87
2022/07/07 02:29:09;;;;;;;4.35;1.67;;;18.40;67.50;;;;;;5023179;28;20779;-87
2022/07/07 02:31:35;;;;;;;7.63;2.03;;;18.40;67.50;;;;;;5020790;28;20026;-87
2022/07/07 02:34:01;;;;;;;5.80;1.75;;;18.40;67.40;;;;;;5025021;28;20036;-87
2022/07/07 02:36:27;;;;;;;8.07;2.17;;;18.40;67.60;;;;;;5013420;28;20026;-84
2022/07/07 02:38:53;;;;;;;5.75;2.20;;;18.40;67.70;;;;;;5019245;28;20408;-88
2022/07/07 02:41:22;;;;;;;6.90;1.67;;;18.40;68.00;;;;;;5023689;28;20030;-88
2022/07/07 02:43:48;;;;;;;6.70;1.98;;;18.40;68.30;;;;;;5027616;28;20071;-88
2022/07/07 02:46:14;;;;;;;4.38;1.80;;;19.50;73.40;;;;;;5028141;28;20496;-89
2022/07/07 02:48:41;;;;;;;5.53;2.00;;;18.30;68.00;;;;;;5026331;28;20034;-88
2022/07/07 02:51:08;;;;;;;6.75;2.03;;;18.30;67.80;;;;;;5026407;28;20021;-85
2022/07/07 02:53:34;;;;;;;5.65;1.60;;;18.30;67.50;;;;;;5026740;28;20083;-89
2022/07/07 02:56:01;;;;;;;5.25;1.55;;;18.40;72.10;;;;;;5028867;28;20029;-89
2022/07/07 02:58:27;;;;;;;5.78;1.65;;;18.20;67.00;;;;;;5026698;28;20458;-86
2022/07/07 03:00:54;;;;;;;4.63;1.60;;;18.20;66.90;;;;;;5024407;28;20049;-88
2022/07/07 03:03:20;;;;;;;7.70;1.98;;;18.20;66.70;;;;;;5025027;28;20098;-88
2022/07/07 03:05:46;;;;;;;7.50;1.90;;;18.10;66.80;;;;;;5020956;28;20120;-88
2022/07/07 03:08:12;;;;;;;7.72;1.80;;;18.10;67.30;;;;;;5012106;28;20089;-89
2022/07/07 03:10:38;;;;;;;8.65;2.00;;;18.10;67.60;;;;;;5025959;28;20464;-88
2022/07/07 03:13:03;;;;;;;6.95;1.90;;;17.40;72.70;;;;;;5022882;28;20047;-87
2022/07/07 03:15:29;;;;;;;4.30;1.70;;;18.60;73.40;;;;;;5022027;28;20022;-88
2022/07/07 03:17:55;;;;;;;7.18;1.70;;;18.00;67.90;;;;;;5025143;28;20436;-88
2022/07/07 03:20:22;;;;;;;5.82;1.90;;;19.10;73.90;;;;;;5025181;28;20026;-88
2022/07/07 03:22:48;;;;;;;6.90;1.70;;;18.00;68.20;;;;;;5027134;28;20123;-88
2022/07/07 03:25:14;;;;;;;4.90;1.60;;;18.00;68.20;;;;;;5026224;28;20563;-88
2022/07/07 03:27:40;;;;;;;7.55;1.95;;;18.00;68.10;;;;;;5027624;28;20045;-88
2022/07/07 03:30:08;;;;;;;8.40;1.80;;;17.90;68.90;;;;;;5027144;28;20514;-88
2022/07/07 03:32:34;;;;;;;6.28;1.70;;;17.90;68.80;;;;;;5022368;28;20037;-88
2022/07/07 03:35:00;;;;;;;9.30;2.05;;;17.80;69.10;;;;;;5020778;28;20029;-89
2022/07/07 03:37:26;;;;;;;8.35;2.00;;;17.80;69.30;;;;;;5027535;28;20041;-88
2022/07/07 03:39:52;;;;;;;7.25;2.00;;;18.50;75.20;;;;;;5024458;28;20033;-89
2022/07/07 03:42:18;;;;;;;5.70;1.60;;;17.80;69.60;;;;;;5025571;28;20030;-88
2022/07/07 03:44:44;;;;;;;6.55;1.92;;;19.60;76.00;;;;;;5025187;28;20096;-88
2022/07/07 03:47:11;;;;;;;5.95;1.75;;;17.70;69.10;;;;;;5024539;28;20045;-88
2022/07/07 03:49:38;;;;;;;7.18;1.67;;;18.10;75.80;;;;;;5026810;28;20365;-89
2022/07/07 03:52:04;;;;;;;5.90;1.67;;;17.70;69.30;;;;;;5027489;28;20037;-88
2022/07/07 03:54:29;;;;;;;5.00;1.48;;;15.70;74.00;;;;;;5024829;28;20404;-88
2022/07/07 03:56:55;;;;;;;7.90;1.67;;;17.70;69.30;;;;;;5022780;28;20040;-88
2022/07/07 03:59:21;;;;;;;6.03;1.70;;;18.90;76.00;;;;;;5023121;28;20607;-87
2022/07/07 04:01:46;;;;;;;7.47;1.60;;;17.70;68.60;;;;;;5026974;28;20032;-88
2022/07/07 04:04:13;;;;;;;5.97;1.70;;;17.70;68.40;;;;;;5028929;28;20022;-88
2022/07/07 04:06:39;;;;;;;8.73;1.60;;;17.70;68.30;;;;;;5021297;28;20037;-78
2022/07/07 04:09:05;;;;;;;5.57;1.40;;;17.60;68.10;;;;;;5024810;28;20038;-82
2022/07/07 04:11:31;;;;;;;5.97;1.50;;;17.80;74.90;;;;;;5021658;28;20037;-81
2022/07/07 04:13:56;;;;;;;5.95;1.98;;;17.60;68.10;;;;;;5026313;28;20080;-81
2022/07/07 04:16:22;;;;;;;7.75;1.63;;;17.50;68.40;;;;;;5027759;28;20029;-81
2022/07/07 04:18:48;;;;;;;6.20;1.80;;;17.50;68.60;;;;;;5018375;28;20033;-81
2022/07/07 04:21:13;;;;;;;6.82;1.70;;;17.50;69.00;;;;;;5022601;28;20053;-80
2022/07/07 04:23:39;;;;;;;6.25;1.83;;;17.50;69.30;;;;;;5025764;28;20072;-82
2022/07/07 04:26:05;;;;;;;4.25;1.65;;;18.80;75.30;;;;;;5024129;28;20041;-82
2022/07/07 04:28:30;;;;;;;5.03;1.50;;;17.40;69.60;;;;;;5018083;28;20404;-82
2022/07/07 04:30:56;;;;;;;5.03;1.55;;;17.50;69.40;;;;;;5023752;28;20022;-81
2022/07/07 04:33:23;;;;;;;5.80;1.50;;;17.40;69.20;;;;;;5025619;28;20056;-83
2022/07/07 04:35:49;;;;;;;8.70;2.08;;;18.80;75.00;;;;;;5024032;28;20029;-78
2022/07/07 04:38:15;;;;;;;8.20;1.70;;;17.40;69.20;;;;;;5024086;28;20073;-79
2022/07/07 04:40:41;;;;;;;6.28;1.65;;;18.70;76.40;;;;;;5019551;28;20041;-85
2022/07/07 04:43:07;;;;;;;9.98;1.90;;;17.40;69.40;;;;;;5022314;28;20048;-82
2022/07/07 04:45:33;;;;;;;5.82;1.60;;;17.40;69.60;;;;;;5020064;28;21045;-78
2022/07/07 04:47:59;;;;;;;6.75;1.65;;;17.40;69.90;;;;;;5020641;28;20053;-79
2022/07/07 04:50:25;;;;;;;7.68;1.50;;;15.00;76.40;;;;;;5018962;28;20115;-78
2022/07/07 04:52:52;;;;;;;8.10;1.73;;;15.10;73.50;;;;;;5021640;28;20448;-84
2022/07/07 04:55:18;;;;;;;17.50;2.30;;;18.40;75.60;;;;;;5023228;28;20033;-83
2022/07/07 04:57:44;;;;;;;14.88;1.60;;;17.40;70.00;;;;;;5022026;28;20392;-85
2022/07/07 05:00:10;;;;;;;9.20;2.28;;;17.40;69.90;;;;;;5025605;28;20033;-86
2022/07/07 05:02:37;;;;;;;11.38;1.70;;;17.50;70.10;;;;;;5021493;28;20091;-81
2022/07/07 05:05:03;;;;;;;6.47;1.88;;;18.60;79.10;;;;;;5021642;28;20118;-84
2022/07/07 05:07:29;;;;;;;8.00;1.88;;;16.70;77.90;;;;;;5021507;28;20587;-85
2022/07/07 05:09:55;;;;;;;6.13;1.83;;;16.60;77.60;;;;;;5018398;28;20088;-83
2022/07/07 05:12:21;;;;;;;7.93;1.95;;;19.50;79.10;;;;;;5022172;28;20196;-85
2022/07/07 05:14:47;;;;;;;7.32;1.80;;;17.20;75.40;;;;;;5021270;28;20037;-90
2022/07/07 05:17:13;;;;;;;8.13;2.25;;;17.60;71.40;;;;;;5022914;28;20030;-76
2022/07/07 05:19:39;;;;;;;7.72;1.80;;;17.70;71.60;;;;;;5016839;28;20036;-86
2022/07/07 05:22:05;;;;;;;9.90;2.20;;;17.80;71.70;;;;;;5025789;28;20036;-90
2022/07/07 05:24:31;;;;;;;7.78;2.17;;;17.80;72.00;;;;;;5032926;28;20025;-91
2022/07/07 05:26:56;;;;;;;8.07;2.13;;;17.80;72.40;;;;;;5031482;28;20044;-91
2022/07/07 05:29:22;;;;;;;10.63;2.20;;;17.90;72.90;;;;;;5028107;28;20029;-93
2022/07/07 05:31:48;;;;;;;8.18;1.73;;;18.00;73.30;;;;;;5026946;28;20036;-86
2022/07/07 05:34:13;;;;;;;10.23;2.25;;;18.00;73.40;;;;;;5021758;28;20030;-88
2022/07/07 05:36:39;;;;;;;7.15;2.10;;;18.10;73.60;;;;;;5020909;28;20048;-84
2022/07/07 05:39:06;;;;;;;7.60;2.00;;;18.10;73.80;;;;;;5028868;28;20025;-86
2022/07/07 05:41:31;;;;;;;7.93;2.20;;;18.20;73.90;;;;;;5025004;28;20048;-86
2022/07/07 05:43:57;;;;;;;7.80;2.17;;;18.30;74.00;;;;;;5025019;28;20025;-87
2022/07/07 05:46:23;;;;;;;9.40;2.55;;;18.40;74.10;;;;;;5014058;28;20038;-87
2022/07/07 05:48:48;;;;;;;8.05;2.15;;;17.10;80.10;;;;;;5012529;28;20032;-89
2022/07/07 05:51:14;;;;;;;8.55;2.08;;;18.60;74.60;;;;;;5012626;28;20049;-89
2022/07/07 05:53:40;;;;;;;9.13;2.35;;;18.60;74.80;;;;;;5015162;28;20124;-88
2022/07/07 05:56:06;;;;;;;12.85;2.40;;;18.70;74.70;;;;;;5012275;28;20033;-83
2022/07/07 05:58:32;;;;;;;9.90;2.38;;;18.70;74.90;;;;;;5013644;28;20017;-82
2022/07/07 06:00:58;;;;;;;8.75;2.40;;;18.50;80.40;;;;;;5012045;28;20022;-86
2022/07/07 06:03:23;;;;;;;10.98;2.28;;;18.90;75.30;;;;;;5012963;28;20030;-84
2022/07/07 06:05:49;;;;;;;8.27;2.17;;;19.00;75.40;;;;;;5012686;28;20117;-87
2022/07/07 06:08:17;;;;;;;11.05;2.30;;;19.10;75.00;;;;;;5010681;28;20049;-85
2022/07/07 06:10:43;;;;;;;12.20;2.63;;;19.20;75.00;;;;;;5011122;28;20026;-86
2022/07/07 06:13:09;;;;;;;6.28;2.22;;;20.50;80.00;;;;;;5011296;28;20108;-84
2022/07/07 06:15:35;;;;;;;8.63;2.10;;;19.50;74.30;;;;;;5016089;28;20022;-87
2022/07/07 06:18:04;;;;;;;13.27;3.63;;;19.70;74.10;;;;;;5017598;28;20041;-85
2022/07/07 06:20:30;;;;;;;8.63;2.60;;;19.80;74.20;;;;;;5017574;28;20044;-83
2022/07/07 06:22:56;;;;;;;9.85;2.60;;;19.50;79.10;;;;;;5027959;28;20056;-85
2022/07/07 06:25:22;;;;;;;8.95;2.20;;;19.90;74.20;;;;;;5013895;28;20025;-87
2022/07/07 06:27:48;;;;;;;11.55;2.63;;;20.00;74.00;;;;;;5029045;28;20124;-85
2022/07/07 06:30:14;;;;;;;11.48;2.40;;;20.20;73.60;;;;;;5022189;28;20109;-86
2022/07/07 06:32:40;;;;;;;8.80;2.42;;;20.40;73.20;;;;;;5016454;28;20128;-86
2022/07/07 06:35:07;;;;;;;10.30;2.35;;;20.50;73.20;;;;;;5013425;28;20109;-86
2022/07/07 06:37:32;;;;;;;9.07;2.45;;;20.60;73.00;;;;;;5024782;28;20053;-85
2022/07/07 06:39:58;;;;;;;12.07;2.33;;;20.90;72.40;;;;;;5016067;28;20066;-85
2022/07/07 06:42:24;;;;;;;8.68;2.38;;;21.00;71.90;;;;;;5015858;28;20030;-86
2022/07/07 06:44:49;;;;;;;14.25;2.28;;;21.20;71.20;;;;;;5015863;28;20039;-86
2022/07/07 06:47:15;;;;;;;12.02;2.30;;;21.30;70.70;;;;;;5015780;28;20502;-87
2022/07/07 06:49:41;;;;;;;13.30;2.47;;;21.40;70.10;;;;;;5012250;28;20030;-85
2022/07/07 06:52:07;;;;;;;10.32;2.28;;;21.40;70.00;;;;;;5017158;28;20053;-85
2022/07/07 06:54:32;;;;;;;8.82;2.30;;;21.40;70.40;;;;;;5016625;28;20114;-84
2022/07/07 06:56:59;;;;;;;11.18;2.63;;;21.40;70.70;;;;;;5015826;28;20113;-84
2022/07/07 06:59:24;;;;;;;9.35;2.30;;;20.80;76.40;;;;;;5019522;28;20025;-85
2022/07/07 07:01:50;;;;;;;8.88;2.45;;;21.30;71.50;;;;;;5013066;28;20607;-85
2022/07/07 07:04:16;;;;;;;9.35;2.45;;;21.20;71.70;;;;;;5017219;28;20030;-81
2022/07/07 07:06:42;;;;;;;10.48;2.72;;;21.20;71.90;;;;;;5016086;28;20069;-83
2022/07/07 07:09:09;;;;;;;15.77;2.83;;;21.20;72.00;;;;;;5015684;28;20509;-85
2022/07/07 07:11:35;;;;;;;9.75;2.33;;;21.30;71.90;;;;;;5015908;28;20087;-82
2022/07/07 07:14:02;;;;;;;8.88;2.53;;;21.30;71.70;;;;;;5013390;28;20037;-82
2022/07/07 07:16:28;;;;;;;10.10;2.50;;;21.60;70.50;;;;;;5032187;28;20121;-81
2022/07/07 07:18:54;;;;;;;9.07;2.47;;;21.70;70.30;;;;;;5016128;28;20058;-82
2022/07/07 07:21:20;;;;;;;6.07;2.05;;;23.20;76.30;;;;;;5015342;28;20100;-83
2022/07/07 07:23:46;;;;;;;7.82;2.20;;;22.00;69.30;;;;;;5027693;28;20029;-82
2022/07/07 07:26:11;;;;;;;6.05;2.03;;;22.50;67.70;;;;;;5012774;28;20057;-82
2022/07/07 07:28:37;;;;;;;9.75;2.00;;;22.60;67.70;;;;;;5019092;28;20480;-82
2022/07/07 07:31:03;;;;;;;6.78;2.20;;;22.90;66.20;;;;;;5022215;28;20025;-82
2022/07/07 07:33:29;;;;;;;10.63;2.03;;;23.00;65.00;;;;;;5019060;28;20072;-80
2022/07/07 07:35:55;;;;;;;8.73;2.10;;;22.80;65.60;;;;;;5015531;28;20060;-83
2022/07/07 07:38:21;;;;;;;10.40;2.17;;;23.40;63.00;;;;;;5013834;28;20465;-83
2022/07/07 07:40:47;;;;;;;7.13;1.80;;;23.80;68.80;;;;;;5012646;28;20053;-81
2022/07/07 07:43:13;;;;;;;6.82;1.95;;;22.80;64.90;;;;;;5017514;28;20053;-82
2022/07/07 07:45:39;;;;;;;10.30;2.00;;;23.20;66.60;;;;;;5015938;28;20480;-83
2022/07/07 07:48:05;;;;;;;9.25;2.00;;;23.40;62.20;;;;;;5015604;28;20073;-80
2022/07/07 07:50:31;;;;;;;7.60;2.00;;;21.20;67.40;;;;;;5014970;28;20047;-80
2022/07/07 07:52:58;;;;;;;7.53;2.10;;;23.20;64.00;;;;;;5010869;28;20042;-81
2022/07/07 07:55:24;;;;;;;10.65;2.10;;;23.30;63.30;;;;;;5016180;28;20473;-80
2022/07/07 07:57:51;;;;;;;6.60;1.90;;;23.40;63.20;;;;;;5014980;28;20128;-80
2022/07/07 08:00:19;;;;;;;6.65;1.80;;;23.30;62.10;;;;;;5019355;28;20465;-83
2022/07/07 08:02:46;;;;;;;5.70;1.90;;;22.90;65.60;;;;;;5014975;28;20043;-84
2022/07/07 08:05:14;;;;;;;9.88;2.33;;;23.40;61.70;;;;;;5011841;28;20030;-84
2022/07/07 08:07:41;;;;;;;9.15;2.28;;;23.50;61.60;;;;;;5013939;28;20107;-83
2022/07/07 08:10:08;;;;;;;7.57;1.80;;;23.50;61.60;;;;;;5013538;28;20050;-83
2022/07/07 08:12:34;;;;;;;6.75;1.80;;;24.00;60.60;;;;;;5026820;28;20044;-82
2022/07/07 08:15:01;;;;;;;8.30;1.70;;;24.40;59.30;;;;;;5021991;28;20432;-83
2022/07/07 08:17:27;;;;;;;8.90;1.80;;;24.70;58.30;;;;;;5013866;28;20097;-81
2022/07/07 08:19:52;;;;;;;5.70;1.73;;;25.00;55.60;;;;;;5013161;28;20029;-80
2022/07/07 08:22:18;;;;;;;4.82;1.65;;;25.00;55.00;;;;;;5015895;28;20068;-81
2022/07/07 08:24:44;;;;;;;5.93;1.60;;;25.10;57.10;;;;;;5014454;28;20033;-80
2022/07/07 08:27:10;;;;;;;6.35;1.50;;;25.10;53.40;;;;;;5014007;28;20402;-80
2022/07/07 08:29:39;;;;;;;4.88;1.50;;;24.90;53.40;;;;;;5019127;28;20468;-81
2022/07/07 08:32:13;;;;;;;4.07;1.45;;;24.60;53.90;;;;;;5014321;28;20158;-81
2022/07/07 08:34:40;;;;;;;6.18;1.92;;;24.40;54.40;;;;;;5012669;28;20018;-81
2022/07/07 08:37:06;;;;;;;7.07;1.80;;;24.20;55.90;;;;;;5015040;28;20076;-81
2022/07/07 08:39:32;;;;;;;6.90;1.67;;;24.10;56.90;;;;;;5024650;28;20022;-81
2022/07/07 08:41:59;;;;;;;8.00;1.70;;;24.80;63.20;;;;;;5013887;28;20033;-81
2022/07/07 08:44:25;;;;;;;8.02;1.70;;;23.70;63.70;;;;;;5013129;28;20430;-81
2022/07/07 08:46:52;;;;;;;7.35;1.75;;;24.00;63.70;;;;;;5010429;28;20049;-81
2022/07/07 08:49:18;;;;;;;5.43;1.58;;;23.70;58.00;;;;;;5015425;28;20026;-81
2022/07/07 08:51:45;;;;;;;6.50;1.75;;;23.70;58.20;;;;;;5014343;28;20080;-81
2022/07/07 08:54:13;;;;;;;3.53;1.52;;;23.30;61.90;;;;;;5014105;28;20022;-81
2022/07/07 08:56:40;;;;;;;3.92;1.40;;;23.60;58.70;;;;;;5013759;28;20488;-83
2022/07/07 08:59:07;;;;;;;4.93;1.60;;;24.20;64.50;;;;;;5014909;28;20030;-83
2022/07/07 09:01:33;;;;;;;4.50;1.65;;;23.70;59.00;;;;;;5013885;28;20034;-79
2022/07/07 09:03:59;;;;;;;9.05;1.90;;;22.90;61.90;;;;;;5014691;28;20022;-80
2022/07/07 09:06:25;;;;;;;7.85;1.90;;;25.90;61.90;;;;;;5012946;28;20041;-81
2022/07/07 09:08:51;;;;;;;4.32;1.55;;;24.70;56.20;;;;;;5012876;28;20046;-80
2022/07/07 09:11:25;;;;;;;7.15;1.70;;;24.80;55.60;;;;;;5013036;28;20087;-80
2022/07/07 09:13:51;;;;;;;5.22;1.40;;;24.70;55.50;;;;;;5012118;28;20034;-82
2022/07/07 09:16:18;;;;;;;5.97;1.70;;;24.60;55.60;;;;;;5011308;28;20496;-82
2022/07/07 09:18:45;;;;;;;7.30;1.70;;;24.60;55.50;;;;;;5017469;28;20033;-83
2022/07/07 09:21:31;;;;;;;8.63;1.73;;;25.40;53.70;;;;;;5019856;28;20038;-84
2022/07/07 09:23:59;;;;;;;4.65;1.48;;;26.40;51.80;;;;;;5014528;28;20060;-83
2022/07/07 09:26:42;;;;;;;5.15;1.42;;;26.70;50.20;;;;;;5012520;28;20030;-82
2022/07/07 09:29:17;;;;;;;4.40;1.20;;;26.90;49.00;;;;;;5014834;28;20480;-81
2022/07/07 09:32:07;;;;;;;4.15;1.40;;;26.80;48.90;;;;;;5011241;28;20400;-82
2022/07/07 09:34:36;;;;;;;5.93;1.40;;;26.90;48.10;;;;;;5025128;28;20095;-79
2022/07/07 09:39:49;;;;;;;5.32;1.52;;;28.70;43.80;;;;;;5013192;28;20573;-79
2022/07/07 09:42:18;;;;;;;5.40;1.63;;;28.10;44.40;;;;;;5013010;28;20026;-82
2022/07/07 09:44:45;;;;;;;4.82;1.52;;;27.50;45.20;;;;;;5013044;28;20124;-79
2022/07/07 09:47:11;;;;;;;8.45;1.50;;;27.00;46.50;;;;;;5009879;28;20084;-79
2022/07/07 09:49:42;;;;;;;4.82;1.35;;;26.30;51.10;;;;;;5027984;28;20106;-77
2022/07/07 09:52:16;;;;;;;4.95;1.48;;;26.50;52.90;;;;;;5013832;28;20030;-79
2022/07/07 09:54:49;;;;;;;5.18;1.40;;;25.90;49.00;;;;;;5015598;28;20673;-77
2022/07/07 09:57:16;;;;;;;6.95;1.63;;;25.70;50.30;;;;;;5012862;28;20034;-80
2022/07/07 09:59:42;;;;;;;4.93;1.30;;;25.50;51.70;;;;;;5017911;28;20497;-85
2022/07/07 10:02:26;;;;;;;6.47;1.73;;;25.40;51.20;;;;;;5009686;28;20105;-84
2022/07/07 10:04:58;;;;;;;5.78;1.40;;;25.30;51.80;;;;;;5013107;28;20061;-82
2022/07/07 10:07:29;;;;;;;5.55;1.50;;;25.40;52.10;;;;;;5014039;28;20497;-81
2022/07/07 10:10:08;;;;;;;4.80;1.50;;;25.30;52.10;;;;;;5012821;28;20049;-81
2022/07/07 10:12:40;;;;;;;4.60;1.42;;;25.10;52.20;;;;;;5012814;28;20030;-82
2022/07/07 10:15:11;;;;;;;5.43;1.70;;;23.50;56.30;;;;;;5018102;28;20026;-81
2022/07/07 10:17:38;;;;;;;9.93;1.50;;;24.80;53.50;;;;;;5011770;28;20077;-82
2022/07/07 10:20:05;;;;;;;5.07;1.40;;;24.80;53.20;;;;;;5012012;28;20492;-82
2022/07/07 10:22:31;;;;;;;7.78;1.60;;;24.80;53.10;;;;;;5009518;28;20022;-81
2022/07/07 10:24:59;;;;;;;6.00;1.50;;;24.70;53.30;;;;;;5023095;28;20033;-82
2022/07/07 10:27:27;;;;;;;15.82;1.80;;;24.70;58.30;;;;;;5016649;28;20116;-82
2022/07/07 10:29:55;;;;;;;4.95;1.50;;;24.70;53.50;;;;;;5016399;28;20025;-82
2022/07/07 10:32:32;;;;;;;6.03;1.42;;;26.10;59.40;;;;;;5010988;28;20066;-82
2022/07/07 10:35:05;;;;;;;5.72;1.58;;;24.70;53.50;;;;;;5008347;28;20089;-82
2022/07/07 10:37:44;;;;;;;4.20;1.55;;;27.10;60.00;;;;;;5024788;28;20022;-79
2022/07/07 10:40:30;;;;;;;5.57;1.58;;;24.70;54.10;;;;;;5028032;28;20032;-80
2022/07/07 10:43:16;;;;;;;4.38;1.52;;;24.70;54.40;;;;;;5013418;28;20029;-80
2022/07/07 10:45:47;;;;;;;8.38;1.48;;;25.20;56.00;;;;;;5012702;28;20060;-80
2022/07/07 10:48:42;;;;;;;6.90;1.50;;;25.70;52.90;;;;;;5012723;28;20038;-80
2022/07/07 10:51:26;;;;;;;6.43;1.60;;;25.80;51.90;;;;;;5012719;28;20026;-79
2022/07/07 10:54:02;;;;;;;4.57;1.38;;;25.90;51.90;;;;;;5012281;28;20025;-79
2022/07/07 10:56:48;;;;;;;5.60;1.35;;;27.40;56.30;;;;;;5011729;28;20488;-79
2022/07/07 10:59:14;;;;;;;6.13;1.50;;;25.90;51.30;;;;;;5014647;28;20029;-80
2022/07/07 11:02:02;;;;;;;4.35;1.40;;;26.00;51.40;;;;;;5011959;28;20034;-79
2022/07/07 11:04:43;;;;;;;6.72;1.30;;;26.00;50.90;;;;;;5028546;28;20545;-79
2022/07/07 11:07:19;;;;;;;7.05;1.40;;;26.00;51.00;;;;;;5014988;28;20042;-79
2022/07/07 11:09:57;;;;;;;5.75;1.52;;;26.10;50.30;;;;;;5015848;28;20053;-80
2022/07/07 11:12:43;;;;;;;5.25;1.50;;;26.20;50.30;;;;;;5026298;28;20084;-79
2022/07/07 11:15:17;;;;;;;4.53;1.30;;;24.30;51.40;;;;;;5015588;28;20053;-78
2022/07/07 11:17:44;;;;;;;7.53;1.55;;;26.50;49.80;;;;;;5028241;28;20024;-80
2022/07/07 11:20:21;;;;;;;6.60;1.35;;;26.70;48.70;;;;;;5021256;28;20061;-79
2022/07/07 11:23:09;;;;;;;7.80;1.33;;;26.60;49.10;;;;;;5013301;28;20037;-79
2022/07/07 11:25:35;;;;;;;5.25;1.25;;;;;;;;;;5027894;28;20809;-79
2022/07/07 11:28:03;;;;;;;4.80;1.45;;;26.50;48.60;;;;;;5016660;28;20049;-79
2022/07/07 11:30:29;;;;;;;4.50;1.40;;;26.40;53.80;;;;;;5019142;28;20034;-79
2022/07/07 11:33:00;;;;;;;4.93;1.45;;;26.20;50.30;;;;;;5018104;28;20029;-80
2022/07/07 11:35:29;;;;;;;;;;;26.20;49.90;;;;;;5026869;28;20115;-79
2022/07/07 11:37:55;;;;;;;4.82;1.50;;;;;;;;;;5011670;28;20031;-80
2022/07/07 11:40:21;;;;;;;6.57;1.55;;;;;;;;;;5016386;28;20029;-80
2022/07/07 11:42:46;;;;;;;6.03;1.52;;;27.00;47.40;;;;;;5015158;28;20040;-80
2022/07/07 11:45:25;;;;;;;5.30;1.38;;;27.00;48.80;;;;;;5014943;28;20029;-80
2022/07/07 11:47:52;;;;;;;5.22;1.38;;;27.00;47.70;;;;;;5026517;28;20042;-80
2022/07/07 11:50:19;;;;;;;5.03;1.40;;;27.00;48.10;;;;;;5027826;28;20018;-80
2022/07/07 11:52:48;;;;;;;4.70;1.38;;;26.80;48.60;;;;;;5013503;28;20811;-81
2022/07/07 11:55:17;;;;;;;4.82;1.40;;;26.90;48.50;;;;;;5016132;28;20022;-80
2022/07/07 11:57:48;;;;;;;4.95;1.30;;;27.10;48.10;;;;;;5015856;28;20034;-80
2022/07/07 12:00:24;;;;;;;4.40;1.20;;;26.80;50.10;;;;;;5019824;28;20034;-82
2022/07/07 12:02:51;;;;;;;5.75;1.40;;;27.00;46.90;;;;;;5014677;28;20037;-82
2022/07/07 12:05:25;;;;;;;6.88;1.45;;;27.20;47.20;;;;;;5012146;28;20033;-83
2022/07/07 12:08:00;;;;;;;5.82;1.15;;;29.10;43.30;;;;;;5027025;28;20034;-82
2022/07/07 12:10:32;;;;;;;3.30;1.02;;;29.80;41.70;;;;;;5015890;28;20056;-82
2022/07/07 12:13:07;;;;;;;2.90;1.08;;;29.40;43.20;;;;;;5013743;28;20022;-82
2022/07/07 12:15:36;;;;;;;8.02;1.40;;;29.00;43.30;;;;;;5014719;28;20025;-82
2022/07/07 12:18:03;;;;;;;4.55;1.10;;;28.70;43.80;;;;;;5014270;28;20506;-83
2022/07/07 12:20:29;;;;;;;5.82;1.08;;;29.60;43.40;;;;;;5024479;28;20100;-83
2022/07/07 12:22:57;;;;;;;4.55;1.10;;;29.60;41.00;;;;;;5010678;28;20030;-83
2022/07/07 12:25:25;;;;;;;4.80;1.00;;;30.20;40.70;;;;;;5014696;28;20037;-81
2022/07/07 12:28:01;;;;;;;5.95;0.90;;;31.40;38.30;;;;;;5014891;28;20046;-82
2022/07/07 12:30:47;;;;;;;3.42;1.00;;;31.10;38.30;;;;;;5014602;28;20026;-82
2022/07/07 12:33:34;;;;;;;4.07;1.00;;;31.40;38.80;;;;;;5016727;28;20223;-82
2022/07/07 12:36:24;;;;;;;5.05;0.93;;;31.30;37.40;;;;;;5019179;28;20480;-82
2022/07/07 12:38:58;;;;;;;5.47;1.25;;;31.30;36.70;;;;;;5019841;28;20037;-80
2022/07/07 12:41:26;;;;;;;3.00;1.05;;;31.20;36.90;;;;;;5013157;28;20025;-81
2022/07/07 12:43:54;;;;;;;4.18;1.17;;;30.80;36.10;;;;;;5010708;28;20376;-80
2022/07/07 12:46:20;;;;;;;5.20;1.00;;;32.10;35.70;;;;;;5015019;28;20030;-80
2022/07/07 12:48:48;;;;;;;2.97;1.10;;;31.30;37.60;;;;;;5013691;28;20037;-80
2022/07/07 12:51:14;;;;;;;2.85;0.80;;;31.60;36.60;;;;;;5013953;28;20053;-80
2022/07/07 12:53:40;;;;;;;3.35;1.00;;;31.80;35.90;;;;;;5012755;28;20037;-80